createdAt,value
2017-07-23T00:00:11.025Z,79.70
2017-07-23T00:02:37.960Z,80.00
2017-07-23T00:05:05.230Z,79.70
2017-07-23T00:07:31.440Z,79.50
2017-07-23T00:09:58.170Z,79.60
2017-07-23T00:12:25.164Z,80.80
2017-07-23T00:14:52.834Z,79.40
2017-07-23T00:17:19.203Z,79.50
2017-07-23T00:19:45.494Z,78.70
2017-07-23T00:22:13.405Z,77.60
2017-07-23T00:24:39.676Z,78.70
2017-07-23T00:27:05.897Z,77.20
2017-07-23T00:29:32.839Z,79.70
2017-07-23T00:32:01.708Z,79.10
2017-07-23T00:34:27.936Z,79.00
2017-07-23T00:36:54.368Z,79.70
2017-07-23T00:39:20.567Z,79.00
2017-07-23T00:41:47.570Z,79.80
2017-07-23T00:44:15.927Z,79.80
2017-07-23T00:46:43.017Z,80.30
2017-07-23T00:49:09.218Z,79.40
2017-07-23T00:51:36.362Z,80.30
2017-07-23T00:54:04.866Z,80.80
2017-07-23T00:56:32.439Z,78.90
2017-07-23T00:58:59.047Z,79.30
2017-07-23T01:01:25.991Z,80.70
2017-07-23T01:03:52.925Z,79.80
2017-07-23T01:06:19.102Z,79.60
2017-07-23T01:08:45.295Z,79.40
2017-07-23T01:11:12.278Z,79.80
2017-07-23T01:13:39.271Z,79.00
2017-07-23T01:16:05.570Z,79.30
2017-07-23T01:18:32.491Z,79.50
2017-07-23T01:21:00.542Z,79.80
2017-07-23T01:23:26.786Z,79.80
2017-07-23T01:25:54.063Z,79.40
2017-07-23T01:28:20.370Z,79.30
2017-07-23T01:30:46.918Z,79.80
2017-07-23T01:33:13.125Z,80.20
2017-07-23T01:35:40.065Z,80.50
2017-07-23T01:38:07.070Z,80.60
2017-07-23T01:40:33.332Z,80.20
2017-07-23T01:43:00.429Z,80.60
2017-07-23T01:45:26.706Z,79.90
2017-07-23T01:47:53.024Z,80.50
2017-07-23T01:50:19.188Z,80.80
2017-07-23T01:53:00.646Z,81.10
2017-07-23T01:55:26.900Z,80.60
2017-07-23T01:57:53.179Z,80.30
2017-07-23T02:00:20.353Z,80.60
2017-07-23T02:02:47.033Z,81.20
2017-07-23T02:05:13.290Z,81.40
2017-07-23T02:07:39.480Z,81.60
2017-07-23T02:10:06.501Z,82.10
2017-07-23T02:12:32.755Z,81.10
2017-07-23T02:14:58.982Z,81.90
2017-07-23T02:17:26.044Z,82.00
2017-07-23T02:19:52.275Z,80.50
2017-07-23T02:22:18.411Z,80.30
2017-07-23T02:24:44.628Z,80.80
2017-07-23T02:27:10.960Z,80.80
2017-07-23T02:29:37.158Z,81.30
2017-07-23T02:32:03.334Z,81.20
2017-07-23T02:34:29.525Z,81.20
2017-07-23T02:36:56.446Z,80.80
2017-07-23T02:39:22.607Z,80.00
2017-07-23T02:41:48.787Z,80.20
2017-07-23T02:44:14.949Z,79.80
2017-07-23T02:46:41.882Z,80.50
2017-07-23T02:49:08.092Z,80.30
2017-07-23T02:51:34.325Z,80.10
2017-07-23T02:54:01.205Z,79.50
2017-07-23T02:56:28.114Z,81.30
2017-07-23T02:58:54.307Z,79.60
2017-07-23T03:01:21.356Z,79.50
2017-07-23T03:03:47.594Z,79.70
2017-07-23T03:06:13.758Z,79.50
2017-07-23T03:08:39.946Z,79.50
2017-07-23T03:11:06.180Z,79.20
2017-07-23T03:13:32.361Z,79.70
2017-07-23T03:15:58.982Z,79.10
2017-07-23T03:18:25.191Z,78.80
2017-07-23T03:20:51.374Z,78.30
2017-07-23T03:23:18.278Z,79.10
2017-07-23T03:25:44.504Z,78.90
2017-07-23T03:28:11.490Z,80.50
2017-07-23T03:30:38.446Z,79.20
2017-07-23T03:33:04.642Z,79.40
2017-07-23T03:35:31.599Z,78.60
2017-07-23T03:37:58.555Z,79.40
2017-07-23T03:40:25.495Z,79.80
2017-07-23T03:42:52.444Z,79.70
2017-07-23T03:45:19.354Z,78.80
2017-07-23T03:47:45.550Z,79.30
2017-07-23T03:50:11.714Z,79.00
2017-07-23T03:52:37.949Z,79.20
2017-07-23T03:55:04.903Z,80.00
2017-07-23T03:57:31.466Z,79.00
2017-07-23T03:59:58.037Z,78.70
2017-07-23T04:02:24.227Z,78.80
2017-07-23T04:04:51.161Z,79.90
2017-07-23T04:07:18.072Z,80.00
2017-07-23T04:09:44.303Z,78.50
2017-07-23T04:12:11.195Z,79.50
2017-07-23T04:14:37.394Z,79.00
2017-07-23T04:17:03.625Z,78.90
2017-07-23T04:19:29.820Z,79.60
2017-07-23T04:21:56.002Z,79.40
2017-07-23T04:24:23.694Z,80.20
2017-07-23T04:26:49.879Z,80.80
2017-07-23T04:29:17.185Z,79.20
2017-07-23T04:31:43.383Z,79.80
2017-07-23T04:34:09.607Z,79.70
2017-07-23T04:36:36.540Z,81.10
2017-07-23T04:39:03.541Z,80.00
2017-07-23T04:41:30.564Z,79.60
2017-07-23T04:43:56.757Z,79.70
2017-07-23T04:46:22.946Z,78.50
2017-07-23T04:48:49.090Z,78.70
2017-07-23T04:51:15.287Z,79.10
2017-07-23T04:53:41.441Z,78.40
2017-07-23T04:56:07.698Z,79.60
2017-07-23T04:58:33.855Z,76.50
2017-07-23T05:01:00.026Z,76.20
2017-07-23T05:03:26.214Z,74.80
2017-07-23T05:05:52.340Z,74.90
2017-07-23T05:08:18.513Z,74.80
2017-07-23T05:10:44.687Z,74.10
2017-07-23T05:13:10.861Z,73.50
2017-07-23T05:15:37.086Z,74.10
2017-07-23T05:18:03.291Z,73.40
2017-07-23T05:20:29.489Z,74.80
2017-07-23T05:22:56.406Z,72.20
2017-07-23T05:25:22.558Z,71.00
2017-07-23T05:27:49.483Z,71.80
2017-07-23T05:30:15.699Z,71.80
2017-07-23T05:32:41.918Z,72.50
2017-07-23T05:35:08.114Z,70.80
2017-07-23T05:37:34.370Z,70.90
2017-07-23T05:40:00.557Z,71.10
2017-07-23T05:42:26.726Z,68.90
2017-07-23T05:44:52.946Z,68.80
2017-07-23T05:47:19.139Z,69.30
2017-07-23T05:49:46.061Z,68.00
2017-07-23T05:52:12.267Z,68.00
2017-07-23T05:54:38.487Z,68.50
2017-07-23T05:57:04.655Z,67.30
2017-07-23T05:59:31.649Z,66.30
2017-07-23T06:01:57.836Z,66.20
2017-07-23T06:04:24.746Z,65.60
2017-07-23T06:06:50.954Z,63.00
2017-07-23T06:09:17.184Z,63.60
2017-07-23T06:11:43.340Z,62.90
2017-07-23T06:14:09.527Z,65.30
2017-07-23T06:16:35.651Z,65.40
2017-07-23T06:19:01.846Z,64.40
2017-07-23T06:21:28.805Z,64.70
2017-07-23T06:23:55.710Z,65.30
2017-07-23T06:26:21.898Z,65.40
2017-07-23T06:28:48.170Z,66.90
2017-07-23T06:31:14.319Z,68.50
2017-07-23T06:33:41.242Z,67.90
2017-07-23T06:36:07.402Z,67.10
2017-07-23T06:38:34.285Z,65.40
2017-07-23T06:41:00.446Z,65.40
2017-07-23T06:43:26.626Z,64.30
2017-07-23T06:45:52.865Z,65.00
2017-07-23T06:48:19.073Z,64.20
2017-07-23T06:50:45.207Z,61.30
2017-07-23T06:53:11.343Z,62.50
2017-07-23T06:55:37.527Z,62.30
2017-07-23T06:58:04.082Z,60.50
2017-07-23T07:00:31.036Z,61.90
2017-07-23T07:02:58.135Z,60.70
2017-07-23T07:05:24.320Z,60.70
2017-07-23T07:07:50.506Z,60.90
2017-07-23T07:10:17.477Z,61.30
2017-07-23T07:12:44.395Z,61.40
2017-07-23T07:15:11.311Z,60.00
2017-07-23T07:17:37.499Z,60.60
2017-07-23T07:20:04.387Z,60.00
2017-07-23T07:22:30.543Z,60.10
2017-07-23T07:24:56.783Z,58.20
2017-07-23T07:27:22.972Z,59.40
2017-07-23T07:29:49.184Z,57.50
2017-07-23T07:32:15.769Z,56.80
2017-07-23T07:34:41.944Z,55.20
2017-07-23T07:37:08.203Z,57.40
2017-07-23T07:39:34.483Z,53.30
2017-07-23T07:42:00.702Z,53.90
2017-07-23T07:44:26.916Z,54.80
2017-07-23T07:46:54.278Z,54.70
2017-07-23T07:49:21.207Z,52.70
2017-07-23T07:51:47.415Z,53.50
2017-07-23T07:54:13.639Z,52.20
2017-07-23T07:56:39.858Z,53.80
2017-07-23T07:59:06.031Z,53.50
2017-07-23T08:01:32.280Z,54.50
2017-07-23T08:03:59.226Z,56.30
2017-07-23T08:06:26.248Z,54.30
2017-07-23T08:08:52.882Z,52.10
2017-07-23T08:11:19.907Z,51.30
2017-07-23T08:13:46.167Z,49.40
2017-07-23T08:16:12.370Z,50.70
2017-07-23T08:18:38.530Z,52.50
2017-07-23T08:21:04.954Z,51.90
2017-07-23T08:23:31.521Z,50.00
2017-07-23T08:25:57.746Z,51.30
2017-07-23T08:28:24.281Z,49.60
2017-07-23T08:30:50.842Z,49.40
2017-07-23T08:33:17.135Z,49.70
2017-07-23T08:35:43.297Z,50.80
2017-07-23T08:38:09.981Z,50.60
2017-07-23T08:40:36.178Z,49.90
2017-07-23T08:43:02.370Z,49.70
2017-07-23T08:45:29.332Z,50.00
2017-07-23T08:47:55.554Z,50.00
2017-07-23T08:50:22.559Z,51.20
2017-07-23T08:52:48.703Z,51.30
2017-07-23T08:55:15.655Z,52.10
2017-07-23T08:57:41.814Z,51.90
2017-07-23T09:00:08.009Z,50.10
2017-07-23T09:02:34.163Z,50.30
2017-07-23T09:05:00.361Z,55.60
2017-07-23T09:07:26.604Z,54.50
2017-07-23T09:09:53.584Z,50.40
2017-07-23T09:12:19.750Z,50.50
2017-07-23T09:14:46.146Z,51.10
2017-07-23T09:17:13.104Z,49.90
2017-07-23T09:19:39.422Z,49.20
2017-07-23T09:22:05.708Z,47.10
2017-07-23T09:24:31.937Z,47.60
2017-07-23T09:26:58.227Z,49.10
2017-07-23T09:29:24.438Z,48.20
2017-07-23T09:31:50.656Z,46.80
2017-07-23T09:34:16.894Z,48.50
2017-07-23T09:36:43.075Z,46.40
2017-07-23T09:39:09.248Z,48.40
2017-07-23T09:41:35.474Z,46.50
2017-07-23T09:44:01.645Z,47.70
2017-07-23T09:46:27.872Z,49.40
2017-07-23T09:48:54.078Z,48.90
2017-07-23T09:51:20.313Z,49.50
2017-07-23T09:53:46.527Z,47.60
2017-07-23T09:56:12.743Z,48.10
2017-07-23T09:58:38.910Z,49.10
2017-07-23T10:01:05.111Z,47.80
2017-07-23T10:03:31.710Z,48.70
2017-07-23T10:05:58.749Z,48.70
2017-07-23T10:08:24.918Z,47.70
2017-07-23T10:10:51.289Z,45.10
2017-07-23T10:13:17.494Z,45.50
2017-07-23T10:15:43.686Z,45.10
2017-07-23T10:18:10.599Z,44.90
2017-07-23T10:20:36.776Z,44.80
2017-07-23T10:23:02.994Z,46.70
2017-07-23T10:25:29.222Z,46.90
2017-07-23T10:27:55.400Z,47.20
2017-07-23T10:30:21.601Z,49.10
2017-07-23T10:33:02.683Z,47.70
2017-07-23T10:35:28.874Z,46.90
2017-07-23T10:37:56.110Z,43.20
2017-07-23T10:40:22.330Z,43.70
2017-07-23T10:42:48.541Z,44.80
2017-07-23T10:45:14.794Z,45.00
2017-07-23T10:47:41.000Z,45.90
2017-07-23T10:50:07.177Z,45.90
2017-07-23T10:52:33.351Z,47.10
2017-07-23T10:54:59.543Z,46.90
2017-07-23T10:57:25.703Z,45.20
2017-07-23T10:59:51.885Z,44.70
2017-07-23T11:02:18.877Z,44.30
2017-07-23T11:04:45.055Z,43.90
2017-07-23T11:07:12.104Z,44.50
2017-07-23T11:09:39.038Z,42.30
2017-07-23T11:12:05.253Z,41.00
2017-07-23T11:14:31.534Z,40.40
2017-07-23T11:16:57.685Z,41.20
2017-07-23T11:19:23.891Z,43.00
2017-07-23T11:21:50.082Z,44.90
2017-07-23T11:24:17.003Z,41.60
2017-07-23T11:26:43.163Z,41.60
2017-07-23T11:29:10.158Z,44.00
2017-07-23T11:31:36.371Z,44.20
2017-07-23T11:34:02.575Z,40.70
2017-07-23T11:36:29.521Z,41.00
2017-07-23T11:38:56.438Z,40.50
2017-07-23T11:41:22.681Z,40.10
2017-07-23T11:43:49.602Z,41.50
2017-07-23T11:46:15.766Z,39.00
2017-07-23T11:48:42.705Z,39.60
2017-07-23T11:51:10.368Z,39.20
2017-07-23T11:53:37.257Z,40.20
2017-07-23T11:56:03.492Z,40.10
2017-07-23T11:58:31.096Z,39.20
2017-07-23T12:01:00.460Z,39.70
2017-07-23T12:03:26.700Z,39.80
2017-07-23T12:05:52.967Z,39.30
2017-07-23T12:08:19.892Z,40.50
2017-07-23T12:10:46.094Z,41.30
2017-07-23T12:13:12.278Z,41.80
2017-07-23T12:15:38.506Z,41.70
2017-07-23T12:18:05.436Z,39.80
2017-07-23T12:20:32.373Z,40.40
2017-07-23T12:22:58.578Z,38.90
2017-07-23T12:25:24.799Z,40.20
2017-07-23T12:27:51.010Z,40.70
2017-07-23T12:30:17.221Z,41.00
2017-07-23T12:32:43.430Z,42.00
2017-07-23T12:35:11.945Z,43.50
2017-07-23T12:37:38.134Z,43.20
2017-07-23T12:40:05.050Z,42.90
2017-07-23T12:42:31.258Z,42.60
2017-07-23T12:44:57.435Z,41.00
2017-07-23T12:47:24.355Z,40.80
2017-07-23T12:49:50.615Z,42.90
2017-07-23T12:52:17.529Z,43.30
2017-07-23T12:54:43.746Z,41.70
2017-07-23T12:57:09.947Z,43.00
2017-07-23T12:59:36.126Z,45.10
2017-07-23T13:02:02.456Z,45.10
2017-07-23T13:04:28.613Z,42.90
2017-07-23T13:06:55.611Z,42.80
2017-07-23T13:09:21.807Z,42.80
2017-07-23T13:11:48.017Z,43.40
2017-07-23T13:14:14.970Z,42.90
2017-07-23T13:16:41.154Z,43.10
2017-07-23T13:19:07.326Z,44.30
2017-07-23T13:21:33.549Z,41.80
2017-07-23T13:23:59.788Z,44.70
2017-07-23T13:26:25.980Z,42.60
2017-07-23T13:28:52.225Z,44.40
2017-07-23T13:31:19.131Z,44.30
2017-07-23T13:33:46.152Z,42.30
2017-07-23T13:36:12.381Z,44.00
2017-07-23T13:38:38.577Z,41.90
2017-07-23T13:41:05.498Z,44.20
2017-07-23T13:43:31.746Z,43.00
2017-07-23T13:45:58.758Z,42.80
2017-07-23T13:48:24.952Z,43.20
2017-07-23T13:50:51.606Z,43.20
2017-07-23T13:53:18.146Z,43.20
2017-07-23T13:55:44.426Z,42.00
2017-07-23T13:58:11.362Z,43.10
2017-07-23T14:00:37.554Z,42.50
2017-07-23T14:03:03.725Z,42.10
2017-07-23T14:05:30.682Z,44.10
2017-07-23T14:07:57.579Z,42.30
2017-07-23T14:10:23.820Z,43.60
2017-07-23T14:12:50.002Z,43.60
2017-07-23T14:15:16.178Z,44.10
2017-07-23T14:17:42.713Z,42.90
2017-07-23T14:20:08.907Z,44.30
2017-07-23T14:22:35.105Z,43.90
2017-07-23T14:25:02.386Z,44.10
2017-07-23T14:27:29.287Z,44.20
2017-07-23T14:29:55.500Z,45.50
2017-07-23T14:32:22.159Z,44.60
2017-07-23T14:34:48.316Z,43.80
2017-07-23T14:37:16.342Z,45.20
2017-07-23T14:39:42.579Z,44.30
2017-07-23T14:42:09.505Z,43.90
2017-07-23T14:44:35.696Z,45.40
2017-07-23T14:47:01.921Z,44.30
2017-07-23T14:49:28.205Z,44.10
2017-07-23T14:51:54.397Z,43.10
2017-07-23T14:54:20.675Z,44.10
2017-07-23T14:56:46.887Z,44.60
2017-07-23T14:59:13.152Z,44.20
2017-07-23T15:01:40.084Z,44.50
2017-07-23T15:04:07.012Z,45.20
2017-07-23T15:06:33.373Z,45.10
2017-07-23T15:09:00.578Z,44.20
2017-07-23T15:11:26.744Z,44.30
2017-07-23T15:13:53.759Z,43.70
2017-07-23T15:16:19.940Z,43.30
2017-07-23T15:18:46.137Z,43.70
2017-07-23T15:21:12.314Z,43.00
2017-07-23T15:23:38.574Z,42.60
2017-07-23T15:26:04.870Z,42.50
2017-07-23T15:28:31.034Z,43.90
2017-07-23T15:30:57.260Z,43.90
2017-07-23T15:33:23.477Z,43.70
2017-07-23T15:35:49.666Z,44.30
2017-07-23T15:38:16.597Z,43.40
2017-07-23T15:40:43.536Z,42.90
2017-07-23T15:43:09.777Z,42.30
2017-07-23T15:45:36.704Z,44.00
2017-07-23T15:48:02.939Z,42.20
2017-07-23T15:50:29.131Z,43.80
2017-07-23T15:52:55.306Z,43.70
2017-07-23T15:55:22.226Z,43.40
2017-07-23T15:57:48.454Z,43.40
2017-07-23T16:00:14.640Z,42.30
2017-07-23T16:02:40.866Z,42.70
2017-07-23T16:05:07.096Z,42.40
2017-07-23T16:07:33.335Z,43.80
2017-07-23T16:09:59.546Z,43.00
2017-07-23T16:12:25.726Z,42.40
2017-07-23T16:14:51.892Z,43.50
2017-07-23T16:17:18.451Z,43.10
2017-07-23T16:19:44.656Z,43.20
2017-07-23T16:22:10.827Z,43.40
2017-07-23T16:24:37.461Z,42.90
2017-07-23T16:27:03.654Z,43.90
2017-07-23T16:29:29.884Z,42.90
2017-07-23T16:31:56.125Z,43.60
2017-07-23T16:34:22.298Z,44.10
2017-07-23T16:36:48.479Z,43.70
2017-07-23T16:39:14.738Z,43.70
2017-07-23T16:41:40.991Z,44.30
2017-07-23T16:44:07.210Z,43.60
2017-07-23T16:46:33.404Z,44.80
2017-07-23T16:48:59.574Z,44.20
2017-07-23T16:51:26.556Z,45.20
2017-07-23T16:53:52.839Z,43.70
2017-07-23T16:56:19.003Z,43.30
2017-07-23T16:58:45.997Z,43.60
2017-07-23T17:01:12.225Z,45.20
2017-07-23T17:03:38.861Z,43.50
2017-07-23T17:06:05.107Z,43.90
2017-07-23T17:08:31.287Z,43.90
2017-07-23T17:10:57.572Z,44.50
2017-07-23T17:13:23.765Z,44.50
2017-07-23T17:15:49.978Z,44.00
2017-07-23T17:18:16.178Z,44.70
2017-07-23T17:20:42.425Z,43.30
2017-07-23T17:23:09.463Z,45.30
2017-07-23T17:25:37.165Z,44.30
2017-07-23T17:28:03.396Z,44.80
2017-07-23T17:30:29.967Z,44.40
2017-07-23T17:32:56.153Z,44.00
2017-07-23T17:35:23.428Z,46.40
2017-07-23T17:37:52.101Z,45.20
2017-07-23T17:40:18.319Z,45.10
2017-07-23T17:42:44.719Z,45.50
2017-07-23T17:45:11.744Z,46.80
2017-07-23T17:47:37.947Z,45.40
2017-07-23T17:50:04.278Z,46.30
2017-07-23T17:52:31.222Z,46.30
2017-07-23T17:54:57.410Z,46.80
2017-07-23T17:57:24.338Z,47.80
2017-07-23T17:59:50.565Z,44.50
2017-07-23T18:02:17.496Z,46.40
2017-07-23T18:04:43.741Z,46.00
2017-07-23T18:07:09.951Z,46.30
2017-07-23T18:09:36.175Z,46.70
2017-07-23T18:12:02.688Z,46.20
2017-07-23T18:14:28.958Z,46.60
2017-07-23T18:16:55.137Z,47.10
2017-07-23T18:19:21.327Z,47.00
2017-07-23T18:21:47.480Z,45.80
2017-07-23T18:24:13.665Z,47.00
2017-07-23T18:26:40.156Z,47.00
2017-07-23T18:29:06.336Z,47.20
2017-07-23T18:31:32.546Z,47.50
2017-07-23T18:33:58.771Z,47.50
2017-07-23T18:36:24.973Z,45.80
2017-07-23T18:38:51.133Z,46.40
2017-07-23T18:41:17.315Z,46.50
2017-07-23T18:43:43.523Z,47.00
2017-07-23T18:46:10.436Z,48.00
2017-07-23T18:48:36.625Z,47.10
2017-07-23T18:51:03.193Z,46.70
2017-07-23T18:53:29.381Z,47.20
2017-07-23T18:55:55.592Z,48.40
2017-07-23T18:58:22.524Z,49.00
2017-07-23T19:00:48.727Z,48.20
2017-07-23T19:03:14.912Z,48.70
2017-07-23T19:05:41.140Z,49.10
2017-07-23T19:08:07.344Z,48.40
2017-07-23T19:10:33.477Z,49.00
2017-07-23T19:13:00.766Z,49.80
2017-07-23T19:15:26.939Z,48.10
2017-07-23T19:17:53.115Z,48.90
2017-07-23T19:20:19.412Z,49.70
2017-07-23T19:22:46.373Z,49.70
2017-07-23T19:25:13.454Z,50.60
2017-07-23T19:27:39.627Z,49.60
2017-07-23T19:30:05.815Z,49.00
2017-07-23T19:32:32.046Z,49.90
2017-07-23T19:34:58.252Z,50.40
2017-07-23T19:37:24.481Z,51.00
2017-07-23T19:39:50.656Z,50.80
2017-07-23T19:42:18.171Z,50.30
2017-07-23T19:44:44.364Z,49.70
2017-07-23T19:47:11.288Z,50.80
2017-07-23T19:49:37.483Z,50.20
2017-07-23T19:52:03.682Z,49.70
2017-07-23T19:54:30.618Z,51.90
2017-07-23T19:56:57.607Z,51.30
2017-07-23T19:59:23.808Z,51.10
2017-07-23T20:01:49.962Z,51.30
2017-07-23T20:04:16.175Z,50.80
2017-07-23T20:06:42.423Z,51.10
2017-07-23T20:09:08.636Z,51.00
2017-07-23T20:11:34.854Z,51.80
2017-07-23T20:14:01.808Z,53.20
2017-07-23T20:16:27.956Z,53.50
2017-07-23T20:18:54.761Z,53.10
2017-07-23T20:21:21.694Z,54.30
2017-07-23T20:23:48.662Z,54.10
2017-07-23T20:26:15.195Z,54.00
2017-07-23T20:28:41.395Z,54.00
2017-07-23T20:31:07.643Z,53.80
2017-07-23T20:33:33.848Z,54.10
2017-07-23T20:36:00.066Z,54.50
2017-07-23T20:38:26.262Z,54.50
2017-07-23T20:40:52.458Z,53.80
2017-07-23T20:43:19.407Z,54.80
2017-07-23T20:45:45.576Z,53.90
2017-07-23T20:48:11.796Z,53.90
2017-07-23T20:50:38.010Z,53.80
2017-07-23T20:53:04.242Z,54.20
2017-07-23T20:55:30.805Z,54.10
2017-07-23T20:57:57.004Z,54.20
2017-07-23T21:00:25.344Z,54.70
2017-07-23T21:02:51.563Z,54.30
2017-07-23T21:05:18.534Z,54.70
2017-07-23T21:07:45.504Z,55.30
2017-07-23T21:10:11.702Z,55.30
2017-07-23T21:12:38.630Z,54.80
2017-07-23T21:15:04.905Z,54.40
2017-07-23T21:17:31.446Z,54.20
2017-07-23T21:19:57.625Z,54.20
2017-07-23T21:22:24.847Z,54.70
2017-07-23T21:24:51.120Z,54.60
2017-07-23T21:27:17.403Z,55.50
2017-07-23T21:29:43.573Z,54.90
2017-07-23T21:32:10.515Z,55.70
2017-07-23T21:34:36.802Z,55.40
2017-07-23T21:37:03.011Z,55.30
2017-07-23T21:39:29.174Z,55.00
2017-07-23T21:41:55.379Z,54.80
2017-07-23T21:44:22.716Z,54.80
2017-07-23T21:46:48.914Z,54.20
2017-07-23T21:49:15.129Z,55.00
2017-07-23T21:51:42.273Z,55.00
2017-07-23T21:54:08.463Z,55.50
2017-07-23T21:56:34.740Z,55.90
2017-07-23T21:59:00.968Z,55.30
2017-07-23T22:01:27.148Z,55.80
2017-07-23T22:03:53.402Z,55.30
2017-07-23T22:06:20.679Z,55.50
2017-07-23T22:08:46.839Z,55.90
2017-07-23T22:11:14.127Z,57.10
2017-07-23T22:13:41.295Z,55.90
2017-07-23T22:16:07.490Z,55.90
2017-07-23T22:18:48.606Z,56.20
2017-07-23T22:21:14.979Z,56.20
2017-07-23T22:23:41.473Z,56.90
2017-07-23T22:26:07.802Z,57.00
2017-07-23T22:28:33.968Z,56.80
2017-07-23T22:31:02.600Z,56.40
2017-07-23T22:33:28.790Z,56.50
2017-07-23T22:35:55.725Z,57.30
2017-07-23T22:38:21.908Z,56.60
2017-07-23T22:40:48.086Z,57.10
2017-07-23T22:43:16.389Z,57.90
2017-07-23T22:45:43.670Z,56.50
2017-07-23T22:48:12.045Z,57.10
2017-07-23T22:50:38.235Z,56.30
2017-07-23T22:53:05.726Z,56.90
2017-07-23T22:55:33.469Z,57.60
2017-07-23T22:57:59.739Z,57.50
2017-07-23T23:00:26.070Z,58.10
2017-07-23T23:02:54.114Z,57.00
2017-07-23T23:05:20.323Z,57.20
2017-07-23T23:07:46.801Z,57.30
2017-07-23T23:10:13.871Z,57.40
2017-07-23T23:12:40.034Z,57.50
2017-07-23T23:15:07.024Z,58.40
2017-07-23T23:17:34.623Z,57.80
2017-07-23T23:20:00.915Z,57.80
2017-07-23T23:22:27.344Z,58.50
2017-07-23T23:24:53.530Z,58.40
2017-07-23T23:27:20.438Z,59.30
2017-07-23T23:29:46.607Z,59.40
2017-07-23T23:32:13.568Z,59.50
2017-07-23T23:34:39.816Z,58.90
2017-07-23T23:37:06.019Z,59.30
2017-07-23T23:39:32.579Z,59.30
2017-07-23T23:41:58.789Z,59.10
2017-07-23T23:44:25.006Z,58.90
2017-07-23T23:46:51.264Z,58.70
2017-07-23T23:49:17.527Z,58.80
2017-07-23T23:51:44.143Z,58.80
2017-07-23T23:54:10.319Z,59.00
2017-07-23T23:56:37.267Z,60.40
2017-07-23T23:59:05.233Z,60.30
